»·PEaware :: N19804 KSNA-KSMO

N19804 :: KSNA-KSMO

FLIGHT INFORMATION

Flight Status: Arrived
Operator: Privately registered:
United States
More flights under this callsign
Pilot: Ion I. (24133)
Aircraft: CESSNA 172 SKYHAWK
(C172)
More flights by this aircraft type
Origin: KSNA John Wayne-Orange Co
United States
Destination: KSMO Santa Monica Mun
United States
More flights between these airports :: More routes between these airports
Route: +SLI V8 POXKU V363 BAYJY V186 DARTS
File this flight plan on PilotEdge
Remarks: I-4
Altitude:
(Current/Filed)
6,000ft
Speed:
(Current/Filed)
120kts
Departed: 15-Apr-19 10:03 PM
Arrived: 15-Apr-19 10:45 PM
Distance/Time
Traveled:
35nm/0:41
Distance/Time
To Go:
Arrived

Flight Plot

Page will automatically refresh every two minutes.


Map Options




Map Legend


Flown Route
Filed Route
Departure Airport
Arrival Airport
Navaid (VOR, NDB)
Fix

Horizontal Profiles

Position Reports

Time Latitude Longitude Heading Altitude Ground
Speed
15-Apr-19 21:48 33.675704 -117.871035 30 59ft 0kts
15-Apr-19 21:49 33.675707 -117.871033 30 59ft 0kts
15-Apr-19 21:50 33.675710 -117.871031 30 59ft 0kts
15-Apr-19 21:51 33.675712 -117.871029 30 59ft 0kts
15-Apr-19 21:52 33.675715 -117.871027 30 59ft 0kts
15-Apr-19 21:53 33.675718 -117.871025 30 59ft 0kts
15-Apr-19 21:54 33.675721 -117.871023 30 59ft 0kts
15-Apr-19 21:55 33.675724 -117.871021 30 59ft 0kts
15-Apr-19 21:56 33.675862 -117.870769 126 59ft 0kts
15-Apr-19 21:57 33.675806 -117.870680 126 59ft 4kts
15-Apr-19 21:58 33.677844 -117.868989 27 59ft 14kts
15-Apr-19 21:59 33.681168 -117.867085 28 59ft 13kts
15-Apr-19 22:00 33.681371 -117.866703 233 59ft 0kts
15-Apr-19 22:01 33.681104 -117.866251 118 59ft 8kts
15-Apr-19 22:02 33.671475 -117.871610 208 288ft 74kts
15-Apr-19 22:03 33.657178 -117.888355 234 1090ft 74kts
15-Apr-19 22:04 33.644802 -117.908835 231 1796ft 81kts
15-Apr-19 22:05 33.632429 -117.928718 232 2563ft 74kts
15-Apr-19 22:06 33.620473 -117.948509 232 3255ft 71kts
15-Apr-19 22:07 33.608675 -117.968252 233 3857ft 75kts
15-Apr-19 22:08 33.621458 -117.981432 0 4483ft 80kts
15-Apr-19 22:09 33.644784 -117.978304 3 5001ft 87kts
15-Apr-19 22:10 33.665820 -117.975165 3 5499ft 86kts
15-Apr-19 22:11 33.690396 -117.971168 2 5992ft 92kts
15-Apr-19 22:12 33.721694 -117.966697 2 6011ft 125kts
15-Apr-19 22:13 33.756948 -117.962241 2 6011ft 129kts
15-Apr-19 22:14 33.792361 -117.957870 3 6007ft 130kts
15-Apr-19 22:15 33.816201 -117.932085 80 6001ft 130kts
15-Apr-19 22:16 33.825945 -117.890268 75 6003ft 129kts
15-Apr-19 22:17 33.836591 -117.849035 75 6002ft 129kts
15-Apr-19 22:18 33.847115 -117.808200 75 6004ft 128kts
15-Apr-19 22:19 33.868038 -117.780585 348 6014ft 124kts
15-Apr-19 22:20 33.903115 -117.783385 355 5996ft 127kts
15-Apr-19 22:21 33.938351 -117.784146 355 6001ft 126kts
15-Apr-19 22:22 33.973700 -117.784880 355 6004ft 126kts
15-Apr-19 22:23 34.008143 -117.788465 314 6002ft 119kts
15-Apr-19 22:24 34.019237 -117.824003 285 6008ft 114kts
15-Apr-19 22:25 34.030418 -117.860085 285 6004ft 114kts
15-Apr-19 22:26 34.041589 -117.896295 285 5997ft 115kts
15-Apr-19 22:27 34.052377 -117.931288 285 5985ft 115kts
15-Apr-19 22:28 34.063337 -117.966870 285 5977ft 115kts
15-Apr-19 22:29 34.074508 -118.003157 285 5971ft 115kts
15-Apr-19 22:30 34.085605 -118.039313 285 5971ft 114kts
15-Apr-19 22:31 34.096671 -118.075340 285 5974ft 114kts
15-Apr-19 22:32 34.106771 -118.113033 282 5618ft 125kts
15-Apr-19 22:33 34.116291 -118.152219 282 5075ft 129kts
15-Apr-19 22:34 34.124804 -118.188568 282 4458ft 129kts
15-Apr-19 22:35 34.131530 -118.230120 254 3775ft 127kts
15-Apr-19 22:36 34.114718 -118.260999 237 2939ft 132kts
15-Apr-19 22:37 34.099776 -118.292993 237 3033ft 107kts
15-Apr-19 22:38 34.084562 -118.324366 240 2993ft 105kts
15-Apr-19 22:39 34.070476 -118.355051 240 3007ft 107kts
15-Apr-19 22:40 34.057997 -118.386173 249 2612ft 95kts
15-Apr-19 22:41 34.047881 -118.412709 246 1436ft 75kts
15-Apr-19 22:42 34.034486 -118.429026 226 700ft 66kts
15-Apr-19 22:43 34.022325 -118.443687 224 287ft 59kts
15-Apr-19 22:44 34.015170 -118.452069 223 178ft 27kts
15-Apr-19 22:45 34.012849 -118.453942 137 178ft 1kts
15-Apr-19 22:46 34.013362 -118.452658 157 178ft 3kts
15-Apr-19 22:47 34.013326 -118.452636 149 178ft 0kts

Navigation Log

Ident Type
Flight plan parsing failed, navigation log unavailable